KLNN/LNN METAR and TAF weather

Enter ICAO airport designator
Station Type Date Time Source
KLNN METAR 2023/06/01 15:35 UTC NOAA

KLNN 011535Z AUTO 01008KT 10SM CLR 24/09 A3016 RMK AO1 T02390090


Station Type Date Time Source
KLNN Decoded METAR 2023/06/01 15:35 UTC NOAA

Willoughby, OH, United States (KLNN) 41-41N 081-23W
Jun 01, 2023 - 11:35 AM EDT / 2023.06.01 1535 UTC
Wind: from the N (010 degrees) at 9 MPH (8 KT):0
Visibility: 10 mile(s):0
Sky conditions: clear
Temperature: 75.0 F (23.9 C)
Dew Point: 48.2 F (9.0 C)
Relative Humidity: 38%
Pressure (altimeter): 30.16 in. Hg (1021 hPa)
ob: KLNN 011535Z AUTO 01008KT 10SM CLR 24/09 A3016 RMK AO1 T02390090
cycle: 15

Station Type Date Time Source
KLNN TAF UTC NOAA

Error!

Example: see airport list